Flight Track Log - Related Links

Times and Time Zones

All times are in EDT time to prevent confusion due to time zone crossing. See the DAL268 flight status page for this flight to view local times or setup timezone preferences in your user account.

Time Position Orientation Groundspeed Altitude Reporting Facility
EDT Latitude Longitude Course Direction KTS MPH feet Rate Location/Type
Fri 02:33:16 PM 37.6130 -122.3790 North 25 29  Level FlightAware ADS-B
Fri 02:33:41 PM 37.6150 -122.3790 360° North 25 29 35 Level FlightAware ADS-B
Fri 02:34:20 PM 37.6110 -122.3810 202° Southwest 14 16 36 Level FlightAware ADS-B
Fri 02:34:47 PM 37.6100 -122.3810 180° South 2 2 37 Level FlightAware ADS-B
Fri 02:36:01 PM 37.6110 -122.3810 360° North 2 2 38 Level FlightAware ADS-B
Fri 02:37:08 PM 37.6110 -122.3820 270° West 2 2 41 Level FlightAware ADS-B
Fri 02:39:00 PM 37.7820 -122.2013 38° Northeast  Level FlightAware Approximate
Fri 02:40:00 PM 37.8762 -122.1072 38° Northeast  Level FlightAware Approximate
Fri 02:41:00 PM 37.9704 -122.0129 38° Northeast  Level FlightAware Approximate
Fri 02:41:05 PM 37.6110 -122.3830 38° Northeast 2 2  Level FlightAware ADS-B
Fri 02:42:32 PM 37.6090 -122.3840 202° Southwest 17 20 63 Level FlightAware ADS-B
Fri 02:44:12 PM 37.6080 -122.3860 238° Southwest 2 2 75 Level FlightAware ADS-B
Fri 02:46:00 PM 37.7757 -122.2076 38° Northeast  Level FlightAware Approximate
Fri 02:47:00 PM 37.8699 -122.1134 38° Northeast  Level FlightAware Approximate
Fri 02:47:44 PM 37.6080 -122.3870 38° Northeast 2 2  Level FlightAware ADS-B
Fri 02:50:00 PM 37.8197 -122.1637 38° Northeast  Level FlightAware Approximate
Fri 02:50:11 PM 37.6120 -122.3860 38° Northeast 96 110  Level FlightAware ADS-B
Fri 02:50:33 PM 37.6318 -122.3730 27° Northeast 161 185 600 1,714 Climbing FlightAware ADS-B
Fri 02:50:39 PM 37.6358 -122.3700 31° Northeast 166 191 800 2,000 Climbing FlightAware ADS-B
Fri 02:50:45 PM 37.6392 -122.3670 35° Northeast 170 196 1,000 2,000 Climbing FlightAware ADS-B
Fri 02:50:51 PM 37.6428 -122.3630 41° Northeast 173 199 1,200 2,000 Climbing FlightAware ADS-B
Fri 02:51:03 PM 37.6503 -122.3530 47° Northeast 184 212 1,600 1,862 Climbing FlightAware ADS-B
Fri 02:51:20 PM 37.6599 -122.3400 47° Northeast 198 228 2,100 1,500 Climbing FlightAware ADS-B
Fri 02:51:35 PM 37.6700 -122.3270 46° Northeast 221 254 2,400 1,200 Climbing FlightAware ADS-B
Fri 02:51:50 PM 37.6817 -122.3120 45° Northeast 240 276 2,700 1,543 Climbing FlightAware ADS-B
Fri 02:52:10 PM 37.6983 -122.2910 45° Northeast 254 292 3,300 1,750 Climbing FlightAware ADS-B
Fri 02:52:14 PM 37.7023 -122.2880 31° Northeast 265 305 3,400 2,000 Climbing FlightAware ADS-B
Fri 02:52:19 PM 37.7076 -122.2850 24° Northeast 266 306 3,600 2,667 Climbing FlightAware ADS-B
Fri 02:52:23 PM 37.7128 -122.2820 25° Northeast 267 307 3,800 3,000 Climbing FlightAware ADS-B
Fri 02:52:29 PM 37.7204 -122.2810 North 268 308 4,100 2,571 Climbing FlightAware ADS-B
Fri 02:52:37 PM 37.7295 -122.2820 355° North 270 311 4,400 2,250 Climbing FlightAware ADS-B
Fri 02:52:45 PM 37.7401 -122.2850 347° North 277 319 4,700 2,538 Climbing FlightAware ADS-B
Fri 02:53:03 PM 37.7616 -122.2950 340° North 279 321 5,500 2,667 Climbing FlightAware ADS-B
Fri 02:53:21 PM 37.7829 -122.3050 340° North 279 321 6,300 2,500 Climbing FlightAware ADS-B
Fri 02:53:39 PM 37.8048 -122.3170 337° Northwest 287 330 7,000 2,400 Climbing FlightAware ADS-B
Fri 02:53:46 PM 37.8139 -122.3220 337° Northwest 288 331 7,300 2,769 Climbing FlightAware ADS-B
Fri 02:53:52 PM 37.8212 -122.3250 342° North 286 329 7,600 3,000 Climbing FlightAware ADS-B
Fri 02:54:00 PM 37.8312 -122.3260 355° North 283 326 8,000 2,538 Climbing FlightAware ADS-B
Fri 02:54:18 PM 37.8550 -122.3190 13° North 282 325 8,700 2,118 Climbing FlightAware ADS-B
Fri 02:54:34 PM 37.8727 -122.3070 28° Northeast 291 335 9,200 2,000 Climbing FlightAware ADS-B
Fri 02:54:42 PM 37.8810 -122.2970 44° Northeast 293 337 9,500 2,167 Climbing FlightAware ADS-B
Fri 02:55:10 PM 37.9080 -122.2620 46° Northeast 298 343 10,500 2,032 Climbing FlightAware ADS-B
Fri 02:55:44 PM 37.9414 -122.2190 45° Northeast 309 356 11,600 2,182 Climbing FlightAware ADS-B
Fri 02:56:16 PM 37.9734 -122.1770 46° Northeast 310 357 12,900 2,250 Climbing FlightAware ADS-B
Fri 02:56:48 PM 38.0059 -122.1350 46° Northeast 321 369 14,000 2,095 Climbing FlightAware ADS-B
Fri 02:57:19 PM 38.0382 -122.0940 45° Northeast 325 374 15,100 2,129 Climbing FlightAware ADS-B
Fri 02:57:50 PM 38.0709 -122.0500 47° Northeast 331 381 16,200 1,935 Climbing FlightAware ADS-B
Fri 02:58:21 PM 38.1049 -122.0060 46° Northeast 340 391 17,100 2,182 Climbing FlightAware ADS-B
Fri 02:58:56 PM 38.1420 -121.9570 46° Northeast 333 383 18,600 1,941 Climbing FlightAware ADS-B
Fri 02:59:29 PM 38.1788 -121.9090 46° Northeast 352 405 19,300 1,415 Climbing FlightAware ADS-B
Fri 03:00:42 PM 38.2450 -121.8220 46° Northeast 359 413 21,100 1,603 Climbing FlightAware ADS-B
Fri 03:01:25 PM 38.3020 -121.7460 46° Northeast 367 422 22,400 1,610 Climbing FlightAware ADS-B
Fri 03:02:04 PM 38.3430 -121.6920 46° Northeast 373 429 23,300 1,047 Climbing FlightAware ADS-B
Fri 03:02:51 PM 38.4170 -121.5930 46° Northeast 413 475 23,900 674 Climbing FlightAware ADS-B
Fri 03:03:33 PM 38.4710 -121.5110 50° Northeast 437 503 24,300 444 Climbing FlightAware ADS-B
Fri 03:04:12 PM 38.5170 -121.4310 54° Northeast 463 533 24,500 512 Climbing FlightAware ADS-B
Fri 03:04:55 PM 38.5740 -121.3330 53° Northeast 483 556 25,000 876 Climbing FlightAware ADS-B
Fri 03:05:41 PM 38.6230 -121.2490 53° Northeast 487 560 25,800 1,038 Climbing FlightAware ADS-B
Fri 03:06:39 PM 38.6940 -121.1240 54° Northeast 497 572 26,800 1,366 Climbing FlightAware ADS-B
Fri 03:07:22 PM 38.7720 -120.9890 53° Northeast 499 574 28,100 1,271 Climbing FlightAware ADS-B
Fri 03:08:04 PM 38.8270 -120.8920 54° Northeast 510 587 28,600 1,271 Climbing FlightAware ADS-B
Fri 03:08:47 PM 38.8910 -120.7800 54° Northeast 504 580 29,900 1,518 Climbing FlightAware ADS-B
Fri 03:09:27 PM 38.9440 -120.6870 54° Northeast 502 578 30,700 951 Climbing FlightAware ADS-B
Fri 03:10:09 PM 38.9810 -120.6230 53° Northeast 505 581 31,200 935 Climbing FlightAware ADS-B
Fri 03:10:44 PM 39.0350 -120.5290 53° Northeast 505 581 31,900 1,463 Climbing FlightAware ADS-B
Fri 03:11:31 PM 39.1180 -120.3830 54° Northeast 503 579 33,200 1,340 Climbing FlightAware ADS-B
Fri 03:12:18 PM 39.1820 -120.2700 54° Northeast 504 580 34,000 947 Climbing FlightAware ADS-B
Fri 03:12:47 PM 39.2210 -120.2010 54° Northeast 505 581 34,400 900 Climbing FlightAware ADS-B
Fri 03:13:18 PM 39.2660 -120.1220 54° Northeast 506 582 34,900 480 Climbing FlightAware ADS-B
Fri 03:14:02 PM 39.3260 -120.0150 54° Northeast 506 582 35,000 70 Climbing FlightAware ADS-B
Fri 03:14:44 PM 39.3850 -119.9100 54° Northeast 505 581 35,000  Level FlightAware ADS-B
Fri 03:15:24 PM 39.4380 -119.8150 54° Northeast 506 582 35,000  Level FlightAware ADS-B
Fri 03:16:00 PM 39.4690 -119.7600 54° Northeast 508 585 35,000  Level FlightAware ADS-B
Fri 03:16:44 PM 39.5300 -119.6490 55° Northeast 510 587 35,000  Level FlightAware ADS-B
Fri 03:17:35 PM 39.5990 -119.5260 54° Northeast 510 587 35,000  Level FlightAware ADS-B
Fri 03:18:21 PM 39.6830 -119.3730 54° Northeast 512 589 35,000  Level FlightAware ADS-B
Fri 03:19:01 PM 39.7370 -119.2750 54° Northeast 512 589 35,000  Level FlightAware ADS-B
Fri 03:19:39 PM 39.7900 -119.1790 54° Northeast 512 589 35,000  Level FlightAware ADS-B
Fri 03:20:20 PM 39.8310 -119.1040 55° Northeast 512 589 35,000  Level FlightAware ADS-B
Fri 03:21:01 PM 39.9020 -118.9740 55° Northeast 512 589 35,000  Level FlightAware ADS-B
Fri 03:21:43 PM 39.9590 -118.8690 55° Northeast 513 590 35,000  Level FlightAware ADS-B
Fri 03:22:19 PM 40.0090 -118.7770 55° Northeast 512 589 35,000  Level FlightAware ADS-B
Fri 03:23:09 PM 40.0780 -118.6500 55° Northeast 511 588 35,000  Level FlightAware ADS-B
Fri 03:23:43 PM 40.1020 -118.6010 57° Northeast 511 588 35,000  Level FlightAware ADS-B
Fri 03:24:28 PM 40.1470 -118.4720 65° Northeast 511 588 35,000  Level FlightAware ADS-B
Fri 03:25:14 PM 40.1870 -118.3260 70° East 510 587 35,000  Level FlightAware ADS-B
Fri 03:25:57 PM 40.2270 -118.1740 71° East 510 587 35,000  Level FlightAware ADS-B
Fri 03:26:34 PM 40.2520 -118.0830 70° East 510 587 35,000  Level FlightAware ADS-B
Fri 03:27:23 PM 40.2860 -117.9620 70° East 510 587 35,000  Level FlightAware ADS-B
Fri 03:28:01 PM 40.3120 -117.8680 70° East 510 587 35,000  Level FlightAware ADS-B
Fri 03:28:25 PM 40.3290 -117.8090 69° East 510 587 35,000  Level FlightAware ADS-B
Fri 03:29:25 PM 40.3700 -117.6600 70° East 510 587 35,000  Level FlightAware ADS-B
Fri 03:30:02 PM 40.3950 -117.5690 70° East 510 587 35,000  Level FlightAware ADS-B
Fri 03:30:53 PM 40.4300 -117.4430 70° East 510 587 35,000  Level FlightAware ADS-B
Fri 03:31:27 PM 40.4530 -117.3580 70° East 510 587 35,000  Level FlightAware ADS-B
Fri 03:32:04 PM 40.4790 -117.2670 69° East 510 587 35,000  Level FlightAware ADS-B
Fri 03:32:52 PM 40.5120 -117.1480 70° East 510 587 35,000  Level FlightAware ADS-B
Fri 03:33:26 PM 40.5350 -117.0630 70° East 510 587 35,000  Level FlightAware ADS-B
Fri 03:34:15 PM 40.5690 -116.9420 70° East 510 587 35,000  Level FlightAware ADS-B
Fri 03:34:53 PM 40.5950 -116.8480 70° East 510 587 35,000  Level FlightAware ADS-B
Fri 03:35:30 PM 40.6200 -116.7560 70° East 510 587 35,000  Level FlightAware ADS-B
Fri 03:36:07 PM 40.6450 -116.6640 70° East 510 587 35,000  Level FlightAware ADS-B
Fri 03:37:58 PM 40.7901 -116.0680 72° East 509 586 35,000  Level FlightAware ADS-B
Fri 03:38:32 PM 40.8165 -115.9690 71° East 509 586 35,000  Level FlightAware ADS-B
Fri 03:39:08 PM 40.8446 -115.8630 71° East 508 585 35,000  Level FlightAware ADS-B
Fri 03:39:45 PM 40.8727 -115.7560 71° East 508 585 35,000  Level FlightAware ADS-B
Fri 03:41:55 PM 40.9725 -115.3740 71° East 507 583 35,000  Level FlightAware ADS-B
Fri 03:42:26 PM 40.9956 -115.2850 71° East 507 583 35,000  Level FlightAware ADS-B
Fri 03:42:56 PM 41.0187 -115.1950 71° East 507 583 35,000  Level FlightAware ADS-B
Fri 03:43:27 PM 41.0417 -115.1060 71° East 508 585 35,000  Level FlightAware ADS-B
Fri 03:43:57 PM 41.0648 -115.0170 71° East 508 585 35,000  Level FlightAware ADS-B
Fri 03:44:28 PM 41.0882 -114.9250 71° East 509 586 35,000  Level FlightAware ADS-B
Fri 03:44:59 PM 41.1111 -114.8350 71° East 509 586 35,000  Level FlightAware ADS-B
Fri 03:45:40 PM 41.1416 -114.7150 71° East 509 586 35,000  Level FlightAware ADS-B
Fri 03:46:11 PM 41.1650 -114.6220 71° East 509 586 35,000  Level FlightAware ADS-B
Fri 03:46:41 PM 41.1876 -114.5320 72° East 509 586 35,000  Level FlightAware ADS-B
Fri 03:47:12 PM 41.2105 -114.4410 71° East 509 586 35,000  Level FlightAware ADS-B
Fri 03:47:42 PM 41.2330 -114.3510 72° East 510 587 35,000  Level FlightAware ADS-B
Fri 03:48:13 PM 41.2554 -114.2610 72° East 508 585 35,000  Level FlightAware ADS-B
Fri 03:48:45 PM 41.2790 -114.1660 72° East 508 585 35,000  Level FlightAware ADS-B
Fri 03:49:15 PM 41.3011 -114.0770 72° East 508 585 35,000  Level FlightAware ADS-B
Fri 03:49:45 PM 41.3231 -113.9880 72° East 508 585 35,000  Level FlightAware ADS-B
Fri 03:50:14 PM 41.3441 -113.9020 72° East 507 583 35,000  Level FlightAware ADS-B
Fri 03:50:42 PM 41.3612 -113.8190 75° East 507 583 35,000  Level FlightAware ADS-B
Fri 03:51:13 PM 41.3755 -113.7230 79° East 507 583 35,000  Level FlightAware ADS-B
Fri 03:51:45 PM 41.3884 -113.6260 80° East 506 582 35,000  Level FlightAware ADS-B
Fri 03:52:15 PM 41.4005 -113.5330 80° East 506 582 35,000  Level FlightAware ADS-B
Fri 03:52:48 PM 41.4136 -113.4320 80° East 505 581 35,000  Level FlightAware ADS-B
Fri 03:53:18 PM 41.4254 -113.3390 80° East 505 581 35,000  Level FlightAware ADS-B
Fri 03:53:50 PM 41.4378 -113.2430 80° East 505 581 35,000  Level FlightAware ADS-B
Fri 03:54:20 PM 41.4496 -113.1500 80° East 505 581 35,000  Level FlightAware ADS-B
Fri 03:54:51 PM 41.4617 -113.0540 80° East 506 582 35,000  Level FlightAware ADS-B
Fri 03:55:39 PM 41.4800 -112.9100 80° East 505 581 35,000  Level FlightAware ADS-B
Fri 03:56:28 PM 41.4990 -112.7590 80° East 506 582 35,000  Level FlightAware ADS-B
Fri 03:56:40 PM 41.5035 -112.7200 81° East 507 583 35,000  Level FlightAware ADS-B
Fri 03:57:12 PM 41.5155 -112.6210 81° East 508 585 35,000  Level FlightAware ADS-B
Fri 03:57:47 PM 41.5287 -112.5130 81° East 508 585 35,000  Level FlightAware ADS-B
Fri 03:58:18 PM 41.5399 -112.4180 81° East 508 585 35,000  Level FlightAware ADS-B
Fri 03:58:48 PM 41.5500 -112.3240 82° East 508 585 35,000  Level FlightAware ADS-B
Fri 03:59:24 PM 41.5617 -112.2130 82° East 507 583 35,000  Level FlightAware ADS-B
Fri 03:59:55 PM 41.5718 -112.1180 82° East 506 582 35,000  Level FlightAware ADS-B
Fri 04:00:28 PM 41.5826 -112.0150 82° East 506 582 35,000  Level FlightAware ADS-B
Fri 04:01:00 PM 41.5931 -111.9170 82° East 506 582 35,000  Level FlightAware ADS-B
Fri 04:01:31 PM 41.6028 -111.8220 82° East 506 582 35,000  Level FlightAware ADS-B
Fri 04:02:10 PM 41.6156 -111.7010 82° East 506 582 35,000  Level FlightAware ADS-B
Fri 04:02:40 PM 41.6252 -111.6070 82° East 506 582 35,000  Level FlightAware ADS-B
Fri 04:03:14 PM 41.6357 -111.5040 82° East 504 580 35,000  Level FlightAware ADS-B
Fri 04:03:46 PM 41.6458 -111.4040 82° East 505 581 35,000  Level FlightAware ADS-B
Fri 04:04:16 PM 41.6551 -111.3110 82° East 504 580 35,000  Level FlightAware ADS-B
Fri 04:04:49 PM 41.6649 -111.2110 82° East 504 580 35,000  Level FlightAware ADS-B
Fri 04:05:21 PM 41.6747 -111.1120 82° East 503 579 35,000  Level FlightAware ADS-B
Fri 04:05:51 PM 41.6837 -111.0180 83° East 504 580 35,000  Level FlightAware ADS-B
Fri 04:06:23 PM 41.6930 -110.9220 83° East 504 580 35,000  Level FlightAware ADS-B
Fri 04:06:53 PM 41.7020 -110.8270 83° East 504 580 35,000  Level FlightAware ADS-B
Fri 04:07:24 PM 41.7108 -110.7330 83° East 505 581 35,000  Level FlightAware ADS-B
Fri 04:07:56 PM 41.7117 -110.6547 83° East 505 581 35,000  Level Salt Lake Center
Fri 04:08:58 PM 41.7306 -110.4461 83° East 506 582 35,000  Level Salt Lake Center
Fri 04:14:13 PM 41.8220 -109.4600 83° East 507 583 35,000  Level FlightAware ADS-B
Fri 04:14:53 PM 41.8320 -109.3350 84° East 507 583 35,000  Level FlightAware ADS-B
Fri 04:15:17 PM 41.8380 -109.2610 84° East 507 583 35,000  Level FlightAware ADS-B
Fri 04:16:03 PM 41.8460 -109.1580 84° East 507 583 35,000  Level FlightAware ADS-B
Fri 04:16:41 PM 41.8540 -109.0500 84° East 508 585 35,000  Level FlightAware ADS-B
Fri 04:17:17 PM 41.8660 -108.8890 84° East 508 585 35,000  Level FlightAware ADS-B
Fri 04:18:03 PM 41.8770 -108.7410 84° East 508 585 35,000  Level FlightAware ADS-B
Fri 04:18:45 PM 41.8870 -108.6110 84° East 508 585 35,000  Level FlightAware ADS-B
Fri 04:19:21 PM 41.8950 -108.4980 85° East 508 585 35,000  Level FlightAware ADS-B
Fri 04:20:06 PM 41.9030 -108.3790 85° East 509 586 35,000  Level FlightAware ADS-B
Fri 04:20:45 PM 41.9130 -108.2340 85° East 510 587 35,000  Level FlightAware ADS-B
Fri 04:21:25 PM 41.9220 -108.1110 84° East 510 587 35,000  Level FlightAware ADS-B
Fri 04:22:14 PM 41.9320 -107.9800 84° East 510 587 35,000  Level FlightAware ADS-B
Fri 04:22:50 PM 41.9390 -107.8830 84° East 510 587 35,000  Level FlightAware ADS-B
Fri 04:23:41 PM 41.9500 -107.7460 84° East 510 587 35,000  Level FlightAware ADS-B
Fri 04:24:17 PM 41.9580 -107.6500 84° East 510 587 35,000  Level FlightAware ADS-B
Fri 04:25:05 PM 41.9680 -107.5210 84° East 510 587 35,000  Level FlightAware ADS-B
Fri 04:25:44 PM 41.9760 -107.4160 84° East 510 587 35,000  Level FlightAware ADS-B
Fri 04:26:20 PM 41.9830 -107.3200 84° East 510 587 35,000  Level FlightAware ADS-B
Fri 04:26:54 PM 41.9900 -107.2290 84° East 510 587 35,000  Level FlightAware ADS-B
Fri 04:27:38 PM 42.0000 -107.1100 84° East 510 587 35,000  Level FlightAware ADS-B
Fri 04:28:17 PM 42.0080 -107.0060 84° East 510 587 35,000  Level FlightAware ADS-B
Fri 04:28:53 PM 42.0150 -106.9090 84° East 510 587 35,000  Level FlightAware ADS-B
Fri 04:29:41 PM 42.0250 -106.7800 84° East 510 587 35,000  Level FlightAware ADS-B
Fri 04:30:18 PM 42.0330 -106.6810 84° East 510 587 35,000  Level FlightAware ADS-B
Fri 04:31:01 PM 42.0040 -106.2980 96° East 503 579 35,000  Level FlightAware ADS-B
Fri 04:31:48 PM 41.9980 -106.1690 94° East 501 577 35,000  Level FlightAware ADS-B
Fri 04:32:47 PM 41.9900 -105.9890 93° East 504 580 35,000  Level FlightAware ADS-B
Fri 04:33:31 PM 41.9840 -105.8710 94° East 503 579 35,000  Level FlightAware ADS-B
Fri 04:34:18 PM 41.9780 -105.7300 93° East 504 580 35,000  Level FlightAware ADS-B
Fri 04:34:55 PM 41.9710 -105.5810 94° East 504 580 35,000  Level FlightAware ADS-B
Fri 04:35:31 PM 41.9680 -105.4850 92° East 504 580 35,000  Level FlightAware ADS-B
Fri 04:36:16 PM 41.9600 -105.3170 94° East 504 580 35,000  Level FlightAware ADS-B
Fri 04:36:56 PM 41.9490 -105.1970 97° East 503 579 35,000  Level FlightAware ADS-B
Fri 04:37:38 PM 41.9321 -105.0620 100° East 506 582 35,000  Level FlightAware ADS-B
Fri 04:38:08 PM 41.9187 -104.9700 101° East 506 582 35,000  Level FlightAware ADS-B
Fri 04:38:39 PM 41.9049 -104.8730 101° East 506 582 35,000  Level FlightAware ADS-B
Fri 04:39:12 PM 41.8903 -104.7710 101° East 508 585 35,000  Level FlightAware ADS-B
Fri 04:39:44 PM 41.8779 -104.6740 100° East 509 586 35,000  Level FlightAware ADS-B
Fri 04:40:14 PM 41.8708 -104.5800 96° East 508 585 35,000  Level FlightAware ADS-B
Fri 04:40:44 PM 41.8689 -104.4850 92° East 508 585 35,000  Level FlightAware ADS-B
Fri 04:41:04 PM 41.8705 -104.4210 88° East 507 583 35,000  Level FlightAware ADS-B
Fri 04:41:38 PM 41.8806 -104.3170 83° East 507 583 35,000  Level FlightAware ADS-B
Fri 04:42:08 PM 41.8915 -104.2240 81° East 507 583 35,000  Level FlightAware ADS-B
Fri 04:42:39 PM 41.9025 -104.1280 81° East 507 583 35,000  Level FlightAware ADS-B
Fri 04:43:09 PM 41.9131 -104.0350 81° East 508 585 35,000  Level FlightAware ADS-B
Fri 04:43:39 PM 41.9236 -103.9400 82° East 507 583 35,000  Level FlightAware ADS-B
Fri 04:44:09 PM 41.9340 -103.8460 82° East 507 583 35,000  Level FlightAware ADS-B
Fri 04:44:40 PM 41.9445 -103.7510 82° East 507 583 35,000  Level FlightAware ADS-B
Fri 04:45:10 PM 41.9546 -103.6570 82° East 508 585 35,000  Level FlightAware ADS-B
Fri 04:45:42 PM 41.9654 -103.5580 82° East 508 585 35,000  Level FlightAware ADS-B
Fri 04:46:14 PM 41.9762 -103.4580 82° East 508 585 35,000  Level FlightAware ADS-B
Fri 04:46:45 PM 41.9864 -103.3630 82° East 508 585 35,000  Level FlightAware ADS-B
Fri 04:47:15 PM 41.9964 -103.2680 82° East 508 585 35,000  Level FlightAware ADS-B
Fri 04:47:46 PM 42.0068 -103.1700 82° East 509 586 35,000  Level FlightAware ADS-B
Fri 04:48:17 PM 42.0166 -103.0760 82° East 508 585 35,000  Level FlightAware ADS-B
Fri 04:48:48 PM 42.0266 -102.9790 82° East 509 586 35,000  Level FlightAware ADS-B
Fri 04:49:18 PM 42.0363 -102.8860 82° East 510 587 35,000  Level FlightAware ADS-B
Fri 04:49:48 PM 42.0459 -102.7910 82° East 511 588 35,000  Level FlightAware ADS-B
Fri 04:50:20 PM 42.0563 -102.6890 82° East 512 589 35,000  Level FlightAware ADS-B
Fri 04:51:05 PM 42.0704 -102.5470 82° East 513 590 35,000  Level FlightAware ADS-B
Fri 04:51:38 PM 42.0806 -102.4450 82° East 514 592 35,000  Level FlightAware ADS-B
Fri 04:52:12 PM 42.0913 -102.3370 82° East 514 592 35,000  Level FlightAware ADS-B
Fri 04:53:12 PM 42.1061 -102.2150 82° East 515 593 35,000  Level Denver Center
Fri 04:54:14 PM 42.1311 -101.9658 82° East 516 594 35,000  Level Denver Center
Fri 04:55:16 PM 42.1492 -101.7808 82° East 520 598 35,000  Level Denver Center
Fri 04:56:18 PM 42.1697 -101.5653 83° East 521 600 35,000  Level Denver Center
Fri 04:57:20 PM 42.1864 -101.3808 83° East 519 597 35,000  Level Denver Center
Fri 04:58:22 PM 42.2064 -101.1636 83° East 520 598 35,000  Level Denver Center
Fri 04:59:24 PM 42.2222 -100.9789 83° East 519 597 35,000  Level Denver Center
Fri 05:00:26 PM 42.2408 -100.7647 83° East 516 594 35,000  Level Denver Center
Fri 05:05:58 PM 42.3242 -99.6841 83° East 517 595 35,000  Level FlightAware ADS-B
Fri 05:06:29 PM 42.3317 -99.5859 84° East 516 594 35,000  Level FlightAware ADS-B
Fri 05:07:02 PM 42.3398 -99.4797 84° East 516 594 35,000  Level FlightAware ADS-B
Fri 05:07:32 PM 42.3474 -99.3825 84° East 516 594 35,000  Level FlightAware ADS-B
Fri 05:08:02 PM 42.3545 -99.2866 84° East 516 594 35,000  Level FlightAware ADS-B
Fri 05:08:25 PM 42.3602 -99.2136 84° East 516 594 35,000 539 Level FlightAware ADS-B
Fri 05:09:31 PM 42.4231 -99.0310 65° Northeast 473 544 35,800 619 Climbing FlightAware ADS-B
Fri 05:10:02 PM 42.4704 -98.9686 44° Northeast 462 532 36,000 590 Climbing FlightAware ADS-B
Fri 05:10:32 PM 42.5169 -98.9073 44° Northeast 466 536 36,400 885 Climbing FlightAware ADS-B
Fri 05:11:03 PM 42.5636 -98.8458 44° Northeast 465 535 36,900 590 Climbing FlightAware ADS-B
Fri 05:11:33 PM 42.6105 -98.7842 44° Northeast 465 535 37,000 98 Climbing FlightAware ADS-B
Fri 05:12:04 PM 42.6588 -98.7205 44° Northeast 465 535 37,000  Level FlightAware ADS-B
Fri 05:12:34 PM 42.7050 -98.6592 44° Northeast 463 533 37,000  Level FlightAware ADS-B
Fri 05:13:05 PM 42.7514 -98.5978 44° Northeast 463 533 37,000  Level FlightAware ADS-B
Fri 05:13:35 PM 42.7982 -98.5357 44° Northeast 463 533 37,000  Level FlightAware ADS-B
Fri 05:14:06 PM 42.8451 -98.4742 44° Northeast 463 533 37,000  Level FlightAware ADS-B
Fri 05:14:36 PM 42.8913 -98.4138 44° Northeast 462 532 37,000  Level FlightAware ADS-B
Fri 05:15:07 PM 42.9389 -98.3508 44° Northeast 462 532 37,000  Level FlightAware ADS-B
Fri 05:15:36 PM 42.9750 -98.2779 56° Northeast 477 549 37,000  Level FlightAware ADS-B
Fri 05:15:52 PM 42.9869 -98.2349 69° East 482 555 37,000  Level FlightAware ADS-B
Fri 05:16:05 PM 42.9933 -98.1954 77° East 486 559 37,000  Level FlightAware ADS-B
Fri 05:16:13 PM 42.9954 -98.1702 83° East 487 560 37,000  Level FlightAware ADS-B
Fri 05:16:21 PM 42.9958 -98.1459 89° East 489 563 37,000  Level FlightAware ADS-B
Fri 05:16:29 PM 42.9949 -98.1209 93° East 489 563 37,000  Level FlightAware ADS-B
Fri 05:16:40 PM 42.9914 -98.0880 98° East 489 563 37,000  Level FlightAware ADS-B
Fri 05:16:53 PM 42.9840 -98.0506 105° East 488 562 37,000  Level FlightAware ADS-B
Fri 05:17:02 PM 42.9759 -98.0229 112° Southeast 487 560 37,000  Level FlightAware ADS-B
Fri 05:17:24 PM 42.9512 -97.9655 120° Southeast 482 555 37,000  Level FlightAware ADS-B
Fri 05:17:39 PM 42.9303 -97.9328 131° Southeast 477 549 37,000  Level FlightAware ADS-B
Fri 05:18:36 PM 42.8336 -97.8267 141° Southeast 471 542 37,000  Level FlightAware ADS-B
Fri 05:19:25 PM 42.7490 -97.7381 142° Southeast 470 541 37,000  Level FlightAware ADS-B
Fri 05:19:55 PM 42.6967 -97.6832 142° Southeast 469 540 37,000  Level FlightAware ADS-B
Fri 05:20:26 PM 42.6450 -97.6283 142° Southeast 469 540 37,000  Level FlightAware ADS-B
Fri 05:20:57 PM 42.5919 -97.5716 142° Southeast 468 539 37,000  Level FlightAware ADS-B
Fri 05:21:27 PM 42.5408 -97.5167 142° Southeast 467 537 37,000  Level FlightAware ADS-B
Fri 05:21:57 PM 42.4900 -97.4626 142° Southeast 465 535 37,000  Level FlightAware ADS-B
Fri 05:22:29 PM 42.4369 -97.4060 142° Southeast 465 535 37,000  Level FlightAware ADS-B
Fri 05:23:00 PM 42.3832 -97.3488 142° Southeast 464 534 37,000  Level FlightAware ADS-B
Fri 05:23:31 PM 42.3322 -97.2947 142° Southeast 463 533 37,000  Level FlightAware ADS-B
Fri 05:24:01 PM 42.2823 -97.2417 142° Southeast 462 532 37,000  Level FlightAware ADS-B
Fri 05:24:11 PM 42.2650 -97.2218 140° Southeast 464 534 37,000  Level FlightAware ADS-B
Fri 05:24:19 PM 42.2538 -97.2065 135° Southeast 466 536 37,000  Level FlightAware ADS-B
Fri 05:24:29 PM 42.2401 -97.1839 129° Southeast 469 540 37,000  Level FlightAware ADS-B
Fri 05:24:43 PM 42.2242 -97.1488 121° Southeast 474 545 37,000  Level FlightAware ADS-B
Fri 05:24:52 PM 42.2159 -97.1244 115° Southeast 475 547 37,000  Level FlightAware ADS-B
Fri 05:25:03 PM 42.2080 -97.0913 108° East 478 550 37,000  Level FlightAware ADS-B
Fri 05:25:12 PM 42.2041 -97.0650 101° East 479 551 37,000  Level FlightAware ADS-B
Fri 05:25:21 PM 42.2021 -97.0387 96° East 480 552 37,000  Level FlightAware ADS-B
Fri 05:25:26 PM 42.2017 -97.0242 92° East 480 552 37,000  Level FlightAware ADS-B
Fri 05:25:34 PM 42.2025 -96.9996 87° East 479 551 37,000  Level FlightAware ADS-B
Fri 05:25:42 PM 42.2044 -96.9768 84° East 479 551 37,000  Level FlightAware ADS-B
Fri 05:26:12 PM 42.2175 -96.8880 79° East 478 550 37,000  Level FlightAware ADS-B
Fri 05:26:43 PM 42.2330 -96.8008 76° East 478 550 37,000  Level FlightAware ADS-B
Fri 05:27:13 PM 42.2487 -96.7126 76° East 477 549 37,000  Level FlightAware ADS-B
Fri 05:27:43 PM 42.2640 -96.6261 77° East 476 548 37,000  Level FlightAware ADS-B
Fri 05:28:14 PM 42.2792 -96.5381 77° East 476 548 37,000  Level FlightAware ADS-B
Fri 05:28:44 PM 42.2943 -96.4502 77° East 475 547 37,000  Level FlightAware ADS-B
Fri 05:29:14 PM 42.3091 -96.3632 77° East 475 547 37,000  Level FlightAware ADS-B
Fri 05:29:54 PM 42.3286 -96.2483 77° East 476 548 37,000  Level FlightAware ADS-B
Fri 05:30:24 PM 42.3433 -96.1607 77° East 476 548 37,000  Level FlightAware ADS-B
Fri 05:30:57 PM 42.3591 -96.0670 77° East 476 548 37,000  Level FlightAware ADS-B
Fri 05:31:27 PM 42.3738 -95.9785 77° East 476 548 37,000  Level FlightAware ADS-B
Fri 05:31:57 PM 42.3884 -95.8915 77° East 476 548 37,000  Level FlightAware ADS-B
Fri 05:32:28 PM 42.4029 -95.8037 77° East 475 547 37,000  Level FlightAware ADS-B
Fri 05:32:58 PM 42.4171 -95.7168 77° East 475 547 37,000  Level FlightAware ADS-B
Fri 05:33:29 PM 42.4320 -95.6261 77° East 476 548 37,000  Level FlightAware ADS-B
Fri 05:33:59 PM 42.4462 -95.5378 78° East 476 548 37,000  Level FlightAware ADS-B
Fri 05:34:30 PM 42.4604 -95.4499 78° East 476 548 37,000  Level FlightAware ADS-B
Fri 05:35:00 PM 42.4744 -95.3618 78° East 477 549 37,000  Level FlightAware ADS-B
Fri 05:35:31 PM 42.4887 -95.2727 78° East 480 552 37,000  Level FlightAware ADS-B
Fri 05:36:01 PM 42.5028 -95.1836 78° East 491 565 37,000  Level FlightAware ADS-B
Fri 05:36:32 PM 42.5177 -95.0890 78° East 499 574 37,000  Level FlightAware ADS-B
Fri 05:37:02 PM 42.5321 -94.9961 78° East 505 581 37,000  Level FlightAware ADS-B
Fri 05:37:34 PM 42.5476 -94.8960 78° East 509 586 37,000  Level FlightAware ADS-B
Fri 05:38:25 PM 42.5716 -94.7386 78° East 510 587 37,000  Level FlightAware ADS-B
Fri 05:38:55 PM 42.5857 -94.6447 78° East 508 585 37,000  Level FlightAware ADS-B
Fri 05:39:27 PM 42.6000 -94.5490 78° East 506 582 37,000  Level FlightAware ADS-B
Fri 05:39:50 PM 42.6116 -94.4735 78° East 506 582 37,000  Level FlightAware ADS-B
Fri 05:40:20 PM 42.6254 -94.3800 79° East 506 582 37,000  Level FlightAware ADS-B
Fri 05:40:38 PM 42.6323 -94.3244 80° East 507 583 37,000  Level FlightAware ADS-B
Fri 05:41:13 PM 42.6388 -94.2124 85° East 508 585 37,000  Level FlightAware ADS-B
Fri 05:42:31 PM 42.6414 -93.9652 89° East 508 585 37,000  Level FlightAware ADS-B
Fri 05:43:02 PM 42.6419 -93.8662 90° East 508 585 37,000  Level FlightAware ADS-B
Fri 05:43:32 PM 42.6426 -93.7706 89° East 508 585 37,000  Level FlightAware ADS-B
Fri 05:44:07 PM 42.6430 -93.6590 90° East 507 583 37,000  Level FlightAware ADS-B
Fri 05:44:44 PM 42.6440 -93.5460 89° East 507 583 37,000  Level FlightAware ADS-B
Fri 05:45:24 PM 42.6440 -93.4300 90° East 507 583 37,000  Level FlightAware ADS-B
Fri 05:46:04 PM 42.6440 -93.3020 90° East 508 585 37,000  Level FlightAware ADS-B
Fri 05:46:43 PM 42.6440 -93.1650 90° East 508 585 37,000  Level FlightAware ADS-B
Fri 05:47:31 PM 42.6440 -93.0090 90° East 508 585 37,000  Level FlightAware ADS-B
Fri 05:48:13 PM 42.6440 -92.8770 90° East 508 585 37,000  Level FlightAware ADS-B
Fri 05:48:57 PM 42.6430 -92.7390 91° East 509 586 37,000  Level FlightAware ADS-B
Fri 05:49:30 PM 42.6430 -92.6340 90° East 509 586 37,000  Level FlightAware ADS-B
Fri 05:50:12 PM 42.6420 -92.5020 91° East 509 586 37,000  Level FlightAware ADS-B
Fri 05:50:52 PM 42.6400 -92.3730 91° East 509 586 37,000  Level FlightAware ADS-B
Fri 05:51:33 PM 42.6390 -92.2490 91° East 509 586 37,000  Level FlightAware ADS-B
Fri 05:52:14 PM 42.6380 -92.1090 91° East 510 587 37,000  Level FlightAware ADS-B
Fri 05:52:58 PM 42.6360 -91.9750 91° East 510 587 37,000  Level FlightAware ADS-B
Fri 05:53:44 PM 42.6340 -91.8210 91° East 510 587 37,000  Level FlightAware ADS-B
Fri 05:54:25 PM 42.6320 -91.6920 91° East 510 587 37,000  Level FlightAware ADS-B
Fri 05:55:07 PM 42.6300 -91.5590 91° East 510 587 37,000  Level FlightAware ADS-B
Fri 05:55:50 PM 42.6270 -91.4210 92° East 510 587 37,000  Level FlightAware ADS-B
Fri 05:56:30 PM 42.6250 -91.2940 91° East 509 586 37,000  Level FlightAware ADS-B
Fri 05:57:12 PM 42.6230 -91.1970 92° East 509 586 37,000  Level FlightAware ADS-B
Fri 05:57:50 PM 42.6190 -91.0380 92° East 509 586 37,000  Level FlightAware ADS-B
Fri 05:58:29 PM 42.6160 -90.9200 92° East 509 586 37,000  Level FlightAware ADS-B
Fri 05:59:12 PM 42.6130 -90.7820 92° East 508 585 37,000  Level FlightAware ADS-B
Fri 05:59:52 PM 42.6090 -90.6560 92° East 508 585 37,000  Level FlightAware ADS-B
Fri 06:00:29 PM 42.6060 -90.5340 92° East 508 585 37,000  Level FlightAware ADS-B
Fri 06:01:15 PM 42.6020 -90.3940 92° East 507 583 37,000  Level FlightAware ADS-B
Fri 06:02:02 PM 42.5970 -90.2360 92° East 507 583 37,000  Level FlightAware ADS-B
Fri 06:02:42 PM 42.5930 -90.1090 92° East 507 583 37,000  Level FlightAware ADS-B
Fri 06:03:18 PM 42.5900 -89.9940 92° East 506 582 37,000  Level FlightAware ADS-B
Fri 06:03:56 PM 42.5850 -89.8720 93° East 507 583 37,000  Level FlightAware ADS-B
Fri 06:04:39 PM 42.5810 -89.7410 92° East 506 582 37,000  Level FlightAware ADS-B
Fri 06:05:19 PM 42.5770 -89.6460 93° East 506 582 37,000  Level FlightAware ADS-B
Fri 06:06:04 PM 42.5710 -89.4680 93° East 505 581 37,000  Level FlightAware ADS-B
Fri 06:06:46 PM 42.5650 -89.3380 94° East 503 579 37,000  Level FlightAware ADS-B
Fri 06:07:30 PM 42.5600 -89.1970 93° East 503 579 37,000  Level FlightAware ADS-B
Fri 06:08:11 PM 42.5550 -89.0700 93° East 501 577 37,000  Level FlightAware ADS-B
Fri 06:08:47 PM 42.5500 -88.9570 93° East 499 574 37,000  Level FlightAware ADS-B
Fri 06:09:28 PM 42.5440 -88.8280 94° East 498 573 37,000  Level FlightAware ADS-B
Fri 06:10:06 PM 42.5400 -88.7410 94° East 497 572 37,000  Level FlightAware ADS-B
Fri 06:10:38 PM 42.5360 -88.6550 94° East 496 571 37,000  Level FlightAware ADS-B
Fri 06:11:28 PM 42.5270 -88.4560 93° East 496 571 37,000  Level FlightAware ADS-B
Fri 06:12:08 PM 42.5210 -88.3320 94° East 495 570 37,000  Level FlightAware ADS-B
Fri 06:12:44 PM 42.5160 -88.2250 94° East 495 570 37,000  Level FlightAware ADS-B
Fri 06:13:25 PM 42.5100 -88.0970 94° East 494 568 37,000  Level FlightAware ADS-B
Fri 06:14:08 PM 42.5050 -87.9620 93° East 495 570 37,000  Level FlightAware ADS-B
Fri 06:14:48 PM 42.5040 -87.8380 91° East 496 571 37,000  Level FlightAware ADS-B
Fri 06:15:27 PM 42.5030 -87.7230 91° East 496 571 37,000  Level FlightAware ADS-B
Fri 06:16:13 PM 42.5020 -87.6010 91° East 496 571 37,000  Level FlightAware ADS-B
Fri 06:16:53 PM 42.5010 -87.4840 91° East 495 570 37,000  Level FlightAware ADS-B
Fri 06:17:39 PM 42.4990 -87.3140 91° East 495 570 37,000  Level FlightAware ADS-B
Fri 06:18:16 PM 42.4980 -87.1950 91° East 495 570 37,000  Level FlightAware ADS-B
Fri 06:19:02 PM 42.4960 -87.0550 91° East 494 568 37,000  Level FlightAware ADS-B
Fri 06:19:39 PM 42.4950 -86.9760 91° East 493 567 37,000  Level FlightAware ADS-B
Fri 06:19:53 PM 42.4950 -86.9360 90° East 493 567 37,000  Level FlightAware ADS-B
Fri 06:20:54 PM 42.4920 -86.7110 91° East 493 567 37,000  Level FlightAware ADS-B
Fri 06:21:33 PM 42.4900 -86.5940 91° East 492 566 37,000  Level FlightAware ADS-B
Fri 06:22:13 PM 42.4880 -86.4650 91° East 493 567 37,000  Level FlightAware ADS-B
Fri 06:22:51 PM 42.4860 -86.3480 91° East 492 566 37,000  Level FlightAware ADS-B
Fri 06:23:43 PM 42.4830 -86.1880 91° East 492 566 37,000  Level FlightAware ADS-B
Fri 06:24:25 PM 42.4800 -86.0580 92° East 492 566 37,000  Level FlightAware ADS-B
Fri 06:25:05 PM 42.4780 -85.9360 91° East 491 565 37,000  Level FlightAware ADS-B
Fri 06:25:51 PM 42.4750 -85.7950 92° East 490 564 37,000  Level FlightAware ADS-B
Fri 06:26:31 PM 42.4720 -85.6800 92° East 490 564 37,000  Level FlightAware ADS-B
Fri 06:27:07 PM 42.4710 -85.6000 91° East 490 564 37,000  Level FlightAware ADS-B
Fri 06:27:57 PM 42.4670 -85.4280 92° East 489 563 37,000  Level FlightAware ADS-B
Fri 06:28:31 PM 42.4640 -85.3080 92° East 489 563 37,000  Level FlightAware ADS-B
Fri 06:29:13 PM 42.4610 -85.1780 92° East 489 563 37,000  Level FlightAware ADS-B
Fri 06:29:49 PM 42.4580 -85.0660 92° East 489 563 37,000  Level FlightAware ADS-B
Fri 06:30:33 PM 42.4540 -84.9350 92° East 488 562 37,000  Level FlightAware ADS-B
Fri 06:31:17 PM 42.4510 -84.7990 92° East 488 562 37,000  Level FlightAware ADS-B
Fri 06:32:15 PM 42.4460 -84.6230 92° East 488 562 37,000  Level FlightAware ADS-B
Fri 06:32:56 PM 42.4370 -84.5000 96° East 486 559 37,000  Level FlightAware ADS-B
Fri 06:33:32 PM 42.4260 -84.3990 98° East 485 558 37,000  Level FlightAware ADS-B
Fri 06:34:17 PM 42.4100 -84.2610 99° East 484 557 37,000  Level FlightAware ADS-B
Fri 06:34:55 PM 42.3980 -84.1630 99° East 483 556 37,000  Level FlightAware ADS-B
Fri 06:35:32 PM 42.3820 -84.0690 103° East 482 555 37,000  Level FlightAware ADS-B
Fri 06:36:10 PM 42.3570 -83.9240 103° East 479 551 37,000  Level FlightAware ADS-B
Fri 06:36:58 PM 42.3320 -83.7850 104° East 476 548 37,000  Level FlightAware ADS-B
Fri 06:37:38 PM 42.3130 -83.6690 102° East 475 547 37,000  Level FlightAware ADS-B
Fri 06:38:30 PM 42.3010 -83.5380 97° East 474 545 37,000  Level FlightAware ADS-B
Fri 06:39:11 PM 42.2950 -83.4270 94° East 473 544 37,000  Level FlightAware ADS-B
Fri 06:39:58 PM 42.2870 -83.2600 94° East 472 543 37,000  Level FlightAware ADS-B
Fri 06:40:42 PM 42.2800 -83.1350 94° East 472 543 37,000  Level FlightAware ADS-B
Fri 06:41:22 PM 42.2740 -83.0160 94° East 473 544 37,000  Level FlightAware ADS-B
Fri 06:42:02 PM 42.2680 -82.8950 94° East 473 544 37,000  Level FlightAware ADS-B
Fri 06:42:42 PM 42.2620 -82.7940 95° East 473 544 37,000  Level FlightAware ADS-B
Fri 06:43:22 PM 42.2550 -82.6640 94° East 476 548 37,000  Level FlightAware ADS-B
Fri 06:44:10 PM 42.2470 -82.5170 94° East 478 550 37,000  Level FlightAware ADS-B
Fri 06:44:46 PM 42.2410 -82.4100 94° East 478 550 37,000  Level FlightAware ADS-B
Fri 06:45:22 PM 42.2350 -82.3050 94° East 480 552 37,000  Level FlightAware ADS-B
Fri 06:46:09 PM 42.2270 -82.1620 94° East 483 556 37,000  Level FlightAware ADS-B
Fri 06:46:50 PM 42.2210 -82.0740 95° East 484 557 37,000  Level FlightAware ADS-B
Fri 06:47:12 PM 42.2170 -81.9970 94° East 485 558 37,000  Level FlightAware ADS-B
Fri 06:47:56 PM 42.2070 -81.8390 95° East 487 560 37,000  Level FlightAware ADS-B
Fri 06:48:39 PM 42.1990 -81.7150 95° East 488 562 37,000  Level FlightAware ADS-B
Fri 06:49:24 PM 42.1910 -81.5750 94° East 488 562 37,000  Level FlightAware ADS-B
Fri 06:50:06 PM 42.1830 -81.4520 95° East 488 562 37,000  Level FlightAware ADS-B
Fri 06:50:48 PM 42.1750 -81.3320 95° East 487 560 37,000  Level FlightAware ADS-B
Fri 06:51:31 PM 42.1660 -81.1910 95° East 485 558 37,000  Level FlightAware ADS-B
Fri 06:52:10 PM 42.1570 -81.0700 96° East 487 560 37,000  Level FlightAware ADS-B
Fri 06:52:56 PM 42.1480 -80.9330 95° East 488 562 37,000  Level FlightAware ADS-B
Fri 06:53:34 PM 42.1400 -80.8170 95° East 488 562 37,000  Level FlightAware ADS-B
Fri 06:54:15 PM 42.1310 -80.7000 96° East 489 563 37,000  Level FlightAware ADS-B
Fri 06:54:59 PM 42.1240 -80.5930 95° East 490 564 37,000  Level FlightAware ADS-B
Fri 06:55:38 PM 42.1160 -80.4910 96° East 490 564 37,000  Level FlightAware ADS-B
Fri 06:56:25 PM 42.1030 -80.3100 95° East 489 563 37,000  Level FlightAware ADS-B
Fri 06:57:05 PM 42.0930 -80.1850 96° East 488 562 37,000  Level FlightAware ADS-B
Fri 06:57:45 PM 42.0840 -80.0700 96° East 489 563 37,000  Level FlightAware ADS-B
Fri 06:58:25 PM 42.0750 -79.9430 95° East 489 563 37,000  Level FlightAware ADS-B
Fri 06:59:10 PM 42.0640 -79.8110 96° East 489 563 37,000  Level FlightAware ADS-B
Fri 06:59:50 PM 42.0540 -79.6890 96° East 490 564 37,000  Level FlightAware ADS-B
Fri 07:00:35 PM 42.0430 -79.5530 96° East 492 566 37,000  Level FlightAware ADS-B
Fri 07:01:15 PM 42.0330 -79.4290 96° East 495 570 37,000  Level FlightAware ADS-B
Fri 07:02:00 PM 42.0210 -79.2940 97° East 496 571 37,000  Level FlightAware ADS-B
Fri 07:02:40 PM 42.0110 -79.1730 96° East 496 571 37,000  Level FlightAware ADS-B
Fri 07:03:20 PM 42.0000 -79.0450 97° East 496 571 37,000  Level FlightAware ADS-B
Fri 07:03:58 PM 41.9940 -78.9800 97° East 496 571 37,000  Level FlightAware ADS-B
Fri 07:04:42 PM 41.9810 -78.8330 97° East 495 570 37,000  Level FlightAware ADS-B
Fri 07:05:20 PM 41.9700 -78.7150 97° East 496 571 37,000  Level FlightAware ADS-B
Fri 07:06:00 PM 41.9560 -78.5620 97° East 494 568 37,000  Level FlightAware ADS-B
Fri 07:06:40 PM 41.9440 -78.4350 97° East 492 566 37,000  Level FlightAware ADS-B
Fri 07:07:20 PM 41.9340 -78.3270 97° East 490 564 37,000  Level FlightAware ADS-B
Fri 07:08:00 PM 41.9220 -78.1970 97° East 489 563 37,000  Level FlightAware ADS-B
Fri 07:09:00 PM 41.9070 -78.0490 98° East 487 560 37,000  Level FlightAware ADS-B
Fri 07:09:39 PM 41.8920 -77.8960 97° East 485 558 37,000  Level FlightAware ADS-B
Fri 07:10:27 PM 41.8630 -77.7550 105° East 486 559 37,000  Level FlightAware ADS-B
Fri 07:11:07 PM 41.8340 -77.6410 109° East 485 558 37,000  Level FlightAware ADS-B
Fri 07:11:51 PM 41.8010 -77.5170 110° East 483 556 37,000  Level FlightAware ADS-B
Fri 07:12:31 PM 41.7700 -77.4040 110° East 482 555 37,000  Level FlightAware ADS-B
Fri 07:13:11 PM 41.7420 -77.2970 109° East 481 554 37,000  Level FlightAware ADS-B
Fri 07:13:55 PM 41.7110 -77.1670 108° East 483 556 37,000  Level FlightAware ADS-B
Fri 07:14:31 PM 41.7000 -77.0640 98° East 482 555 37,000  Level FlightAware ADS-B
Fri 07:15:05 PM 41.6900 -76.9615 97° East 483 556 37,000  Level FlightAware ADS-B
Fri 07:15:36 PM 41.6810 -76.8692 97° East 483 556 37,000  Level FlightAware ADS-B
Fri 07:16:09 PM 41.6716 -76.7727 97° East 482 555 37,000  Level FlightAware ADS-B
Fri 07:16:43 PM 41.6618 -76.6725 97° East 483 556 37,000  Level FlightAware ADS-B
Fri 07:17:13 PM 41.6532 -76.5818 97° East 483 556 37,000  Level FlightAware ADS-B
Fri 07:17:44 PM 41.6447 -76.4920 97° East 484 557 37,000  Level FlightAware ADS-B
Fri 07:18:17 PM 41.6359 -76.3934 97° East 485 558 37,000  Level FlightAware ADS-B
Fri 07:18:34 PM 41.6288 -76.3441 101° East 483 556 37,000  Level FlightAware ADS-B
Fri 07:19:09 PM 41.5958 -76.2502 115° Southeast 482 555 37,000  Level FlightAware ADS-B
Fri 07:19:36 PM 41.5596 -76.1870 127° Southeast 476 548 37,000  Level FlightAware ADS-B
Fri 07:19:49 PM 41.5388 -76.1625 139° Southeast 472 543 37,000  Level FlightAware ADS-B
Fri 07:20:19 PM 41.4857 -76.1107 144° Southeast 471 542 37,000 -824 Level FlightAware ADS-B
Fri 07:20:40 PM 41.4511 -76.0696 138° Southeast 480 552 36,300 -2,333 Descending FlightAware ADS-B
Fri 07:20:55 PM 41.4290 -76.0356 131° Southeast 491 565 35,600 -3,000 Descending FlightAware ADS-B
Fri 07:21:02 PM 41.4199 -76.0189 126° Southeast 494 568 35,200 -3,081 Descending FlightAware ADS-B
Fri 07:21:32 PM 41.3866 -75.9387 119° Southeast 499 574 33,700 -3,048 Descending FlightAware ADS-B
Fri 07:22:05 PM 41.3530 -75.8480 116° Southeast 501 577 32,000 -3,138 Descending FlightAware ADS-B
Fri 07:22:37 PM 41.3204 -75.7602 116° Southeast 503 579 30,300 -3,290 Descending FlightAware ADS-B
Fri 07:23:07 PM 41.2889 -75.6761 116° Southeast 504 580 28,600 -3,049 Descending FlightAware ADS-B
Fri 07:23:38 PM 41.2593 -75.5905 115° Southeast 498 573 27,200 -2,613 Descending FlightAware ADS-B
Fri 07:24:09 PM 41.2312 -75.5054 114° Southeast 487 560 25,900 -2,557 Descending FlightAware ADS-B
Fri 07:24:39 PM 41.2038 -75.4234 114° Southeast 479 551 24,600 -2,600 Descending FlightAware ADS-B
Fri 07:25:09 PM 41.1763 -75.3423 114° Southeast 474 545 23,300 -1,477 Descending FlightAware ADS-B
Fri 07:25:44 PM 41.1451 -75.2518 115° Southeast 469 540 23,000 -277 Descending FlightAware ADS-B
Fri 07:26:14 PM 41.1176 -75.1725 115° Southeast 467 537 23,000 -98 Level FlightAware ADS-B
Fri 07:26:45 PM 41.0907 -75.0947 115° Southeast 448 516 22,900 -476 Descending FlightAware ADS-B
Fri 07:27:17 PM 41.0636 -75.0171 115° Southeast 432 497 22,500 -727 Descending FlightAware ADS-B
Fri 07:27:51 PM 41.0361 -74.9379 115° Southeast 404 465 22,100 -689 Descending FlightAware ADS-B
Fri 07:28:18 PM 41.0174 -74.8790 113° Southeast 385 443 21,800 -529 Descending FlightAware ADS-B
Fri 07:28:25 PM 41.0133 -74.8616 107° East 379 436 21,800 -429 Level FlightAware ADS-B
Fri 07:28:46 PM 41.0057 -74.8172 103° East 368 423 21,600 -764 Descending FlightAware ADS-B
Fri 07:29:20 PM 40.9968 -74.7410 99° East 363 418 21,100 -537 Descending FlightAware ADS-B
Fri 07:29:53 PM 40.9885 -74.6691 99° East 364 419 21,000 -185 Descending FlightAware ADS-B
Fri 07:30:25 PM 40.9803 -74.5983 99° East 366 421 20,900 -381 Descending FlightAware ADS-B
Fri 07:30:56 PM 40.9724 -74.5296 99° East 363 418 20,600 -581 Descending FlightAware ADS-B
Fri 07:31:27 PM 40.9644 -74.4615 99° East 361 415 20,300 -590 Descending FlightAware ADS-B
Fri 07:31:57 PM 40.9565 -74.3961 99° East 363 418 20,000 -600 Descending FlightAware ADS-B
Fri 07:32:27 PM 40.9487 -74.3305 99° East 360 414 19,700 -590 Descending FlightAware ADS-B
Fri 07:32:58 PM 40.9410 -74.2652 99° East 359 413 19,400 -706 Descending FlightAware ADS-B
Fri 07:33:01 PM 40.9400 -74.2572 99° East 359 413 19,300 -600 Descending FlightAware ADS-B
Fri 07:33:28 PM 40.9331 -74.2005 99° East 354 407 19,100 -400 Descending FlightAware ADS-B
Fri 07:33:46 PM 40.9278 -74.1609 100° East 353 406 19,000 -300 Descending FlightAware ADS-B
Fri 07:33:48 PM 40.9269 -74.1568 106° East 354 407 19,000 -545 Level FlightAware ADS-B
Fri 07:33:57 PM 40.9223 -74.1383 108° East 351 404 18,900 -632 Descending FlightAware ADS-B
Fri 07:34:07 PM 40.9156 -74.1189 115° Southeast 349 402 18,800 -1,091 Descending FlightAware ADS-B
Fri 07:34:08 PM 40.9151 -74.1179 123° Southeast 348 400 18,700 -1,579 Descending FlightAware ADS-B
Fri 07:34:26 PM 40.9004 -74.0847 120° Southeast 345 397 18,300 -1,400 Descending FlightAware ADS-B
Fri 07:34:38 PM 40.8897 -74.0635 124° Southeast 345 397 18,000 -1,600 Descending FlightAware ADS-B
Fri 07:34:56 PM 40.8737 -74.0324 124° Southeast 344 396 17,500 -1,742 Descending FlightAware ADS-B
Fri 07:35:09 PM 40.8622 -74.0101 124° Southeast 344 396 17,100 -1,688 Descending FlightAware ADS-B
Fri 07:35:28 PM 40.8449 -73.9766 124° Southeast 344 396 16,600 -1,500 Descending FlightAware ADS-B
Fri 07:35:41 PM 40.8342 -73.9553 124° Southeast 341 392 16,300 -1,355 Descending FlightAware ADS-B
Fri 07:35:59 PM 40.8184 -73.9244 124° Southeast 336 387 15,900 -1,385 Descending FlightAware ADS-B
Fri 07:36:33 PM 40.7897 -73.8655 123° Southeast 332 382 15,100 -1,532 Descending FlightAware ADS-B
Fri 07:36:46 PM 40.7812 -73.8427 116° Southeast 335 386 14,700 -1,532 Descending FlightAware ADS-B
Fri 07:37:20 PM 40.7587 -73.7785 115° Southeast 333 383 13,900 -1,500 Descending FlightAware ADS-B
Fri 07:37:38 PM 40.7462 -73.7477 118° Southeast 329 379 13,400 -1,615 Descending FlightAware ADS-B
Fri 07:37:46 PM 40.7385 -73.7359 131° Southeast 322 371 13,200 -1,412 Descending FlightAware ADS-B
Fri 07:38:29 PM 40.6812 -73.7031 157° South 321 369 12,200 -1,343 Descending FlightAware ADS-B
Fri 07:38:53 PM 40.6490 -73.6898 163° South 305 351 11,700 -1,309 Descending FlightAware ADS-B
Fri 07:39:24 PM 40.6082 -73.6731 163° South 300 345 11,000 -1,377 Descending FlightAware ADS-B
Fri 07:39:54 PM 40.5685 -73.6568 163° South 299 344 10,300 -1,364 Descending FlightAware ADS-B
Fri 07:40:08 PM 40.5494 -73.6489 163° South 297 342 10,000 -1,448 Descending FlightAware ADS-B
Fri 07:40:23 PM 40.5296 -73.6406 162° South 296 341 9,600 -1,355 Descending FlightAware ADS-B
Fri 07:40:39 PM 40.5092 -73.6320 162° South 295 339 9,300 -1,161 Descending FlightAware ADS-B
Fri 07:40:54 PM 40.4893 -73.6238 163° South 292 336 9,000 -1,313 Descending FlightAware ADS-B
Fri 07:41:11 PM 40.4680 -73.6146 162° South 289 333 8,600 -1,313 Descending FlightAware ADS-B
Fri 07:41:26 PM 40.4490 -73.6070 163° South 287 330 8,300 -1,200 Descending FlightAware ADS-B
Fri 07:41:36 PM 40.4365 -73.6050 173° South 284 327 8,100 -923 Descending FlightAware ADS-B
Fri 07:41:39 PM 40.4325 -73.6053 183° South 283 326 8,100  Level FlightAware ADS-B
Fri 07:41:49 PM 40.4202 -73.6091 193° South 278 320 8,100  Level FlightAware ADS-B
Fri 07:41:53 PM 40.4151 -73.6116 200° South 277 319 8,100  Level FlightAware ADS-B
Fri 07:42:12 PM 40.3927 -73.6238 203° Southwest 277 319 8,100  Level FlightAware ADS-B
Fri 07:42:28 PM 40.3740 -73.6344 203° Southwest 277 319 8,100  Level FlightAware ADS-B
Fri 07:42:43 PM 40.3553 -73.6449 203° Southwest 278 320 8,100 -462 Level FlightAware ADS-B
Fri 07:42:54 PM 40.3431 -73.6530 207° Southwest 271 312 7,900 -1,125 Descending FlightAware ADS-B
Fri 07:42:59 PM 40.3387 -73.6573 217° Southwest 269 310 7,800 -1,263 Descending FlightAware ADS-B
Fri 07:43:13 PM 40.3285 -73.6748 233° Southwest 264 304 7,500 -1,385 Descending FlightAware ADS-B
Fri 07:43:25 PM 40.3244 -73.6934 254° West 262 302 7,200 -1,600 Descending FlightAware ADS-B
Fri 07:43:28 PM 40.3243 -73.6987 269° West 262 302 7,100 -1,333 Descending FlightAware ADS-B
Fri 07:43:52 PM 40.3271 -73.7356 276° West 262 302 6,600 -1,350 Descending FlightAware ADS-B
Fri 07:44:08 PM 40.3300 -73.7614 278° West 263 303 6,200 -1,500 Descending FlightAware ADS-B
Fri 07:44:24 PM 40.3329 -73.7862 279° West 263 303 5,800 -1,161 Descending FlightAware ADS-B
Fri 07:44:39 PM 40.3353 -73.8096 278° West 259 298 5,600 -600 Descending FlightAware ADS-B
Fri 07:44:54 PM 40.3379 -73.8331 278° West 254 292 5,500 -581 Descending FlightAware ADS-B
Fri 07:45:10 PM 40.3403 -73.8566 278° West 241 277 5,300 -960 Descending FlightAware ADS-B
Fri 07:45:19 PM 40.3418 -73.8698 278° West 234 269 5,100 -1,125 Descending FlightAware ADS-B
Fri 07:45:26 PM 40.3434 -73.8781 284° West 230 265 5,000 -923 Descending FlightAware ADS-B
Fri 07:45:32 PM 40.3458 -73.8857 293° West 226 260 4,900 -857 Descending FlightAware ADS-B
Fri 07:45:40 PM 40.3492 -73.8954 295° West 220 253 4,800 -750 Descending FlightAware ADS-B
Fri 07:45:56 PM 40.3569 -73.9134 299° West 207 238 4,600 -938 Descending FlightAware ADS-B
Fri 07:46:12 PM 40.3646 -73.9304 301° West 193 222 4,300 -581 Descending FlightAware ADS-B
Fri 07:46:27 PM 40.3714 -73.9450 301° West 180 207 4,300 -387 Level FlightAware ADS-B
Fri 07:46:43 PM 40.3781 -73.9590 302° West 169 194 4,100 -706 Descending FlightAware ADS-B
Fri 07:47:01 PM 40.3858 -73.9746 303° West 166 191 3,900 -692 Descending FlightAware ADS-B
Fri 07:47:09 PM 40.3893 -73.9810 306° West 166 191 3,800 -960 Descending FlightAware ADS-B
Fri 07:47:26 PM 40.4015 -73.9885 335° Northwest 178 205 3,500 -1,000 Descending FlightAware ADS-B
Fri 07:47:33 PM 40.4077 -73.9883 North 187 215 3,400 -1,200 Descending FlightAware ADS-B
Fri 07:47:36 PM 40.4106 -73.9879 North 189 217 3,300 -947 Descending FlightAware ADS-B
Fri 07:47:52 PM 40.4240 -73.9859 North 190 219 3,100 -353 Descending FlightAware ADS-B
Fri 07:48:10 PM 40.4407 -73.9834 North 195 224 3,100  Level FlightAware ADS-B
Fri 07:48:22 PM 40.4508 -73.9810 10° North 199 229 3,100  Level FlightAware ADS-B
Fri 07:48:53 PM 40.4782 -73.9756 North 183 211 3,100  Level FlightAware ADS-B
Fri 07:49:45 PM 40.5210 -73.9720 North 180 207 3,100 -91 Level FlightAware ADS-B
Fri 07:49:59 PM 40.5300 -73.9690 14° North 190 219 3,000 -643 Descending FlightAware ADS-B
Fri 07:50:13 PM 40.5390 -73.9620 31° Northeast 194 223 2,800 -769 Descending FlightAware ADS-B
Fri 07:50:38 PM 40.5610 -73.9440 32° Northeast 192 221 2,500 -750 Descending FlightAware ADS-B
Fri 07:51:09 PM 40.5840 -73.9240 33° Northeast 175 201 2,100 -818 Descending FlightAware ADS-B
Fri 07:51:22 PM 40.5938 -73.9164 30° Northeast 167 192 1,900 -724 Descending FlightAware ADS-B
Fri 07:52:07 PM 40.6220 -73.8930 32° Northeast 162 186 1,400 -600 Descending FlightAware ADS-B
Fri 07:52:32 PM 40.6390 -73.8810 28° Northeast 162 186 1,200 -453 Descending FlightAware ADS-B
Fri 07:53:00 PM 40.6550 -73.8630 40° Northeast 163 188 1,000 -409 Descending FlightAware ADS-B
Fri 07:53:16 PM 40.6610 -73.8500 59° Northeast 161 185 900 -500 Descending FlightAware ADS-B
Fri 07:53:24 PM 40.6630 -73.8420 72° East 158 182 800 -286 Descending FlightAware ADS-B
Fri 07:53:37 PM 40.6630 -73.8370 90° East 159 183 800 -429 Level FlightAware ADS-B
Fri 07:54:06 PM 40.6610 -73.8150 97° East 148 170 500 -706 Descending FlightAware ADS-B
Fri 07:54:28 PM 40.6530 -73.7970 120° Southeast 137 158 200 -818 Descending FlightAware ADS-B
Fri 07:54:58 PM 40.6450 -73.7780 119° Southeast 22 25 -400 Descending FlightAware ADS-B
Fri 07:55:11 PM 40.6440 -73.7780 180° South 16 18  Level FlightAware ADS-B
Fri 07:55:30 PM 40.6430 -73.7770 143° Southeast 30 35  Level FlightAware ADS-B
Fri 07:55:36 PM 40.6420 -73.7770 180° South 30 35  Level FlightAware ADS-B
Fri 07:55:57 PM 40.6410 -73.7780 217° Southwest 15 17  Level FlightAware ADS-B

Login

Don't have an account? Register now (free) for customized features, flight alerts, and more!